createdAt,value
2019-03-03T00:06:07.301Z,69.07
2019-03-03T00:11:10.327Z,69.07
2019-03-03T00:13:58.083Z,69.07
2019-03-03T00:16:26.493Z,69.10
2019-03-03T00:18:54.898Z,69.04
2019-03-03T00:21:23.324Z,69.10
2019-03-03T00:23:51.727Z,69.06
2019-03-03T00:26:20.127Z,69.01
2019-03-03T00:32:02.792Z,68.81
2019-03-03T00:34:31.318Z,68.77
2019-03-03T00:40:07.948Z,68.89
2019-03-03T00:42:55.469Z,68.93
2019-03-03T00:45:43.026Z,68.92
2019-03-03T00:51:19.631Z,68.92
2019-03-03T00:54:07.156Z,69.05
2019-03-03T00:56:54.730Z,69.04
2019-03-03T00:59:42.264Z,69.08
2019-03-03T01:02:29.953Z,68.91
2019-03-03T01:08:06.615Z,68.59
2019-03-03T01:11:13.467Z,68.66
2019-03-03T01:14:01.027Z,68.60
2019-03-03T01:16:48.619Z,68.61
2019-03-03T01:19:36.175Z,68.73
2019-03-03T01:22:23.759Z,68.78
2019-03-03T01:25:11.305Z,68.81
2019-03-03T01:27:39.709Z,68.75
2019-03-03T01:30:48.147Z,68.63
2019-03-03T01:33:35.735Z,68.64
2019-03-03T01:36:23.351Z,68.69
2019-03-03T01:38:51.807Z,68.82
2019-03-03T01:41:20.215Z,68.75
2019-03-03T01:43:48.636Z,68.81
2019-03-03T01:46:17.028Z,68.88
2019-03-03T01:48:45.438Z,68.82
2019-03-03T01:53:47.892Z,68.87
2019-03-03T01:56:16.417Z,68.82
2019-03-03T01:58:44.819Z,68.78
2019-03-03T02:01:32.522Z,68.73
2019-03-03T02:10:43.734Z,68.89
2019-03-03T02:16:20.458Z,69.17
2019-03-03T02:18:48.848Z,69.27
2019-03-03T02:21:17.248Z,69.33
2019-03-03T02:26:19.362Z,69.36
2019-03-03T02:28:47.820Z,69.31
2019-03-03T02:31:16.296Z,69.26
2019-03-03T02:33:44.695Z,69.30
2019-03-03T02:36:53.038Z,69.34
2019-03-03T02:39:40.635Z,69.29
2019-03-03T02:50:51.784Z,69.19
2019-03-03T02:53:20.246Z,69.14
2019-03-03T02:55:48.644Z,69.06
2019-03-03T02:58:17.048Z,69.11
2019-03-03T03:09:17.745Z,68.94
2019-03-03T03:12:05.337Z,68.92
2019-03-03T03:17:31.758Z,68.89
2019-03-03T03:20:19.289Z,68.84
2019-03-03T03:23:06.839Z,68.75
2019-03-03T03:25:54.366Z,68.66
2019-03-03T03:28:41.915Z,68.58
2019-03-03T03:31:29.457Z,68.49
2019-03-03T03:34:17.213Z,68.36
2019-03-03T03:39:53.853Z,68.21
2019-03-03T03:45:51.325Z,67.99
2019-03-03T03:57:01.791Z,67.96
2019-03-03T04:00:10.090Z,68.06
2019-03-03T04:02:57.639Z,68.15
2019-03-03T04:06:04.425Z,68.16
2019-03-03T04:08:52.240Z,68.18
2019-03-03T04:11:39.747Z,68.15
2019-03-03T04:14:27.452Z,68.12
2019-03-03T04:20:04.069Z,68.05
2019-03-03T04:22:51.660Z,68.05
2019-03-03T04:28:14.800Z,68.06
2019-03-03T04:33:51.422Z,68.13
2019-03-03T04:36:38.949Z,68.06
2019-03-03T04:39:47.320Z,67.96
2019-03-03T04:42:34.868Z,67.97
2019-03-03T04:45:22.480Z,67.80
2019-03-03T04:50:59.162Z,67.24
2019-03-03T04:53:46.684Z,67.25
2019-03-03T04:56:34.228Z,67.24
2019-03-03T04:59:21.756Z,67.30
2019-03-03T05:04:44.667Z,67.54
2019-03-03T05:10:21.384Z,67.46
2019-03-03T05:13:08.908Z,67.45
2019-03-03T05:15:56.480Z,67.42
2019-03-03T05:23:47.456Z,67.43
2019-03-03T05:26:35.201Z,67.37
2019-03-03T05:32:11.694Z,67.41
2019-03-03T05:34:40.113Z,67.36
2019-03-03T05:37:08.508Z,67.39
2019-03-03T05:42:10.416Z,67.51
2019-03-03T05:44:38.822Z,67.60
2019-03-03T05:47:07.236Z,67.57
2019-03-03T05:49:35.628Z,67.59
2019-03-03T05:52:04.028Z,67.63
2019-03-03T05:54:51.722Z,67.71
2019-03-03T05:57:20.122Z,67.73
2019-03-03T06:00:00.387Z,67.81
2019-03-03T06:04:53.163Z,67.86
2019-03-03T06:07:21.586Z,67.92
2019-03-03T06:09:49.984Z,67.95
2019-03-03T06:12:18.393Z,68.04
2019-03-03T06:14:46.900Z,68.01
2019-03-03T06:17:15.310Z,68.04
2019-03-03T06:22:31.244Z,68.12
2019-03-03T06:24:59.646Z,68.06
2019-03-03T06:27:28.067Z,68.11
2019-03-03T06:29:56.495Z,68.04
2019-03-03T06:32:24.893Z,68.01
2019-03-03T06:34:53.290Z,68.04
2019-03-03T06:39:56.188Z,68.08
2019-03-03T06:42:24.609Z,68.02
2019-03-03T06:44:53.008Z,68.04
2019-03-03T06:47:21.419Z,68.03
2019-03-03T06:49:49.844Z,68.00
2019-03-03T06:52:30.783Z,67.95
2019-03-03T06:54:59.277Z,67.83
2019-03-03T06:57:46.957Z,67.66
2019-03-03T07:00:55.315Z,67.49
2019-03-03T07:03:23.725Z,67.28
2019-03-03T07:05:52.108Z,67.05
2019-03-03T07:08:20.546Z,66.94
2019-03-03T07:10:48.945Z,66.88
2019-03-03T07:13:17.409Z,66.82
2019-03-03T07:18:19.511Z,66.59
2019-03-03T07:20:47.911Z,66.46
2019-03-03T07:25:50.290Z,66.30
2019-03-03T07:30:52.996Z,66.06
2019-03-03T07:38:31.286Z,65.38
2019-03-03T07:40:59.722Z,65.03
2019-03-03T07:43:28.124Z,64.80
2019-03-03T07:45:56.523Z,64.65
2019-03-03T07:50:59.102Z,64.08
2019-03-03T07:53:40.175Z,63.96
2019-03-03T07:56:08.573Z,63.97
2019-03-03T07:58:36.969Z,63.94
2019-03-03T08:01:05.393Z,63.81
2019-03-03T08:03:33.790Z,63.66
2019-03-03T08:06:02.183Z,63.61
2019-03-03T08:08:30.676Z,63.67
2019-03-03T08:10:59.074Z,63.67
2019-03-03T08:13:27.462Z,63.72
2019-03-03T08:18:30.142Z,63.60
2019-03-03T08:20:58.560Z,63.47
2019-03-03T08:23:26.961Z,63.38
2019-03-03T08:25:55.353Z,63.18
2019-03-03T08:28:23.800Z,63.14
2019-03-03T08:30:52.189Z,63.08
2019-03-03T08:33:20.586Z,63.03
2019-03-03T08:46:49.816Z,62.23
2019-03-03T08:49:37.366Z,62.10
2019-03-03T08:57:36.032Z,61.03
2019-03-03T09:00:44.367Z,60.70
2019-03-03T09:03:31.986Z,60.57
2019-03-03T09:06:19.526Z,60.33
2019-03-03T09:14:21.526Z,60.31
2019-03-03T09:17:09.116Z,60.24
2019-03-03T09:19:56.711Z,60.22
2019-03-03T09:25:33.495Z,59.88
2019-03-03T09:33:45.285Z,59.39
2019-03-03T09:36:32.874Z,59.22
2019-03-03T09:41:56.410Z,58.72
2019-03-03T09:44:43.933Z,58.44
2019-03-03T09:47:31.486Z,58.39
2019-03-03T09:55:43.925Z,57.98
2019-03-03T09:58:28.865Z,57.77
2019-03-03T10:01:16.433Z,57.65
2019-03-03T10:06:53.094Z,57.33
2019-03-03T10:10:01.418Z,57.13
2019-03-03T10:12:49.408Z,56.86
2019-03-03T10:15:37.026Z,56.49
2019-03-03T10:18:24.564Z,56.22
2019-03-03T10:24:01.260Z,55.88
2019-03-03T10:26:48.803Z,55.70
2019-03-03T10:29:36.449Z,55.22
2019-03-03T10:35:52.857Z,54.50
2019-03-03T10:41:29.473Z,54.52
2019-03-03T10:44:36.327Z,54.28
2019-03-03T10:50:18.858Z,53.75
2019-03-03T10:53:06.385Z,53.74
2019-03-03T10:58:32.925Z,53.04
2019-03-03T11:06:44.871Z,52.95
2019-03-03T11:09:53.186Z,52.82
2019-03-03T11:12:40.829Z,52.43
2019-03-03T11:15:49.157Z,50.96
2019-03-03T11:18:36.805Z,50.50
2019-03-03T11:26:52.351Z,49.60
2019-03-03T11:32:29.048Z,48.47
2019-03-03T11:35:35.916Z,48.45
2019-03-03T11:41:18.386Z,48.40
2019-03-03T11:46:55.511Z,48.08
2019-03-03T11:55:47.058Z,47.88
2019-03-03T11:58:34.590Z,47.70
2019-03-03T12:01:22.217Z,47.62
2019-03-03T12:04:04.680Z,47.37
2019-03-03T12:06:52.323Z,46.91
2019-03-03T12:12:29.049Z,46.70
2019-03-03T12:15:16.647Z,46.29
2019-03-03T12:18:04.296Z,45.57
2019-03-03T12:21:12.612Z,45.36
2019-03-03T12:27:14.483Z,45.09
2019-03-03T12:32:51.097Z,45.24
2019-03-03T12:38:27.896Z,45.53
2019-03-03T12:41:15.424Z,45.52
2019-03-03T12:44:02.970Z,45.30
2019-03-03T12:49:39.577Z,44.75
2019-03-03T12:55:16.201Z,44.36
2019-03-03T12:58:03.728Z,44.21
2019-03-03T13:00:51.281Z,44.09
2019-03-03T13:06:40.178Z,43.67
2019-03-03T13:09:27.698Z,43.61
2019-03-03T13:12:15.255Z,43.70
2019-03-03T13:15:02.787Z,43.42
2019-03-03T13:17:50.364Z,43.29
2019-03-03T13:26:02.533Z,42.41
2019-03-03T13:28:50.056Z,42.45
2019-03-03T13:34:12.911Z,41.78
2019-03-03T13:39:49.536Z,40.45
2019-03-03T13:42:37.076Z,39.58
2019-03-03T13:45:45.510Z,38.85
2019-03-03T13:48:13.949Z,38.71
2019-03-03T13:50:42.305Z,38.92
2019-03-03T13:53:10.745Z,38.57
2019-03-03T13:55:39.173Z,38.89
2019-03-03T13:58:07.571Z,39.35
2019-03-03T14:03:31.067Z,39.22
2019-03-03T14:06:18.655Z,39.59
2019-03-03T14:11:40.173Z,39.35
2019-03-03T14:14:48.519Z,39.64
2019-03-03T14:17:24.650Z,40.11
2019-03-03T14:19:53.079Z,40.32
2019-03-03T14:22:21.477Z,40.34
2019-03-03T14:24:49.883Z,40.19
2019-03-03T14:29:52.298Z,40.46
2019-03-03T14:34:54.537Z,40.47
2019-03-03T14:37:23.026Z,40.15
2019-03-03T14:39:51.423Z,40.12
2019-03-03T14:42:19.821Z,40.03
2019-03-03T14:47:43.310Z,39.66
2019-03-03T14:50:51.624Z,39.87
2019-03-03T14:53:20.131Z,40.06
2019-03-03T14:55:48.552Z,40.39
2019-03-03T14:58:17.017Z,40.45
2019-03-03T15:03:19.841Z,40.38
2019-03-03T15:05:48.272Z,40.45
2019-03-03T15:08:16.680Z,40.39
2019-03-03T15:10:45.146Z,40.36
2019-03-03T15:15:47.560Z,40.49
2019-03-03T15:21:08.969Z,40.45
2019-03-03T15:26:11.388Z,40.33
2019-03-03T15:28:39.876Z,40.39
2019-03-03T15:31:08.297Z,40.68
2019-03-03T15:33:38.621Z,40.57
2019-03-03T15:47:04.396Z,40.46
2019-03-03T15:52:06.525Z,40.47
2019-03-03T15:57:27.980Z,40.78
2019-03-03T16:00:15.702Z,40.82
2019-03-03T16:02:44.106Z,41.00
2019-03-03T16:08:26.884Z,41.62
2019-03-03T16:10:55.285Z,41.92
2019-03-03T16:13:23.687Z,41.90
2019-03-03T16:16:11.474Z,41.88
2019-03-03T16:18:59.204Z,41.91
2019-03-03T16:24:01.327Z,41.87
2019-03-03T16:26:49.027Z,41.74
2019-03-03T16:29:17.424Z,41.66
2019-03-03T16:32:05.398Z,41.67
2019-03-03T16:34:33.793Z,41.67
2019-03-03T16:37:02.262Z,41.76
2019-03-03T16:42:23.859Z,41.98
2019-03-03T16:44:52.314Z,42.21
2019-03-03T16:47:20.714Z,42.33
2019-03-03T16:49:49.126Z,42.25
2019-03-03T16:52:17.540Z,42.38
2019-03-03T16:54:45.933Z,42.42
2019-03-03T16:57:33.556Z,42.58
2019-03-03T17:00:01.959Z,42.67
2019-03-03T17:02:30.348Z,42.73
2019-03-03T17:05:18.128Z,42.76
2019-03-03T17:08:05.718Z,42.87
2019-03-03T17:13:08.221Z,43.16
2019-03-03T17:15:36.650Z,43.28
2019-03-03T17:18:05.125Z,43.43
2019-03-03T17:20:33.521Z,43.60
2019-03-03T17:23:01.977Z,43.63
2019-03-03T17:25:30.369Z,43.70
2019-03-03T17:27:58.772Z,43.75
2019-03-03T17:31:07.130Z,43.75
2019-03-03T17:33:35.524Z,43.83
2019-03-03T17:36:23.155Z,44.21
2019-03-03T17:38:51.545Z,44.91
2019-03-03T17:41:19.946Z,45.24
2019-03-03T17:46:22.791Z,45.95
2019-03-03T17:51:25.152Z,46.47
2019-03-03T17:56:27.857Z,47.14
2019-03-03T17:58:56.281Z,47.11
2019-03-03T18:06:45.687Z,46.95
2019-03-03T18:09:54.038Z,47.13
2019-03-03T18:12:22.468Z,47.10
2019-03-03T18:14:50.887Z,47.26
2019-03-03T18:19:52.868Z,48.27
2019-03-03T18:22:21.267Z,48.47
2019-03-03T18:27:28.753Z,48.64
2019-03-03T18:29:57.149Z,48.56
2019-03-03T18:32:25.542Z,48.54
2019-03-03T18:34:53.984Z,48.55
2019-03-03T18:37:22.377Z,48.82
2019-03-03T18:40:10.120Z,48.92
2019-03-03T18:42:57.840Z,49.01
2019-03-03T18:45:45.548Z,49.08
2019-03-03T18:48:33.265Z,49.16
2019-03-03T18:51:01.695Z,49.38
2019-03-03T18:53:49.439Z,49.61
2019-03-03T18:58:52.384Z,49.41
2019-03-03T19:01:20.821Z,49.44
2019-03-03T19:03:49.221Z,49.41
2019-03-03T19:09:19.060Z,49.39
2019-03-03T19:11:47.487Z,49.38
2019-03-03T19:14:15.887Z,49.50
2019-03-03T19:16:44.308Z,49.61
2019-03-03T19:19:12.702Z,49.66
2019-03-03T19:21:41.093Z,49.77
2019-03-03T19:26:43.365Z,49.98
2019-03-03T19:31:46.166Z,50.36
2019-03-03T19:40:01.888Z,50.39
2019-03-03T19:42:30.901Z,50.26
2019-03-03T19:45:19.773Z,50.24
2019-03-03T19:47:48.290Z,50.27
2019-03-03T19:50:36.125Z,50.29
2019-03-03T19:53:44.501Z,50.27
2019-03-03T19:58:46.856Z,50.35
2019-03-03T20:01:15.365Z,50.50
2019-03-03T20:03:43.831Z,50.60
2019-03-03T20:06:52.358Z,50.67
2019-03-03T20:09:20.748Z,50.64
2019-03-03T20:12:01.175Z,50.68
2019-03-03T20:17:22.951Z,50.80
2019-03-03T20:19:51.339Z,50.85
2019-03-03T20:22:19.738Z,50.92
2019-03-03T20:25:07.531Z,51.00
2019-03-03T20:28:15.855Z,51.25
2019-03-03T20:35:54.219Z,51.64
2019-03-03T20:38:22.706Z,51.70
2019-03-03T20:40:51.106Z,51.84
2019-03-03T20:43:19.501Z,52.01
2019-03-03T20:48:21.848Z,52.09
2019-03-03T20:51:30.196Z,52.19
2019-03-03T20:53:58.590Z,52.33
2019-03-03T20:56:26.988Z,52.25
2019-03-03T20:58:55.417Z,52.23
2019-03-03T21:01:23.814Z,52.15
2019-03-03T21:03:52.208Z,52.13
2019-03-03T21:08:54.407Z,52.12
2019-03-03T21:11:25.187Z,52.23
2019-03-03T21:13:53.584Z,52.41
2019-03-03T21:16:21.982Z,52.42
2019-03-03T21:21:24.730Z,52.39
2019-03-03T21:26:27.272Z,52.25
2019-03-03T21:31:29.686Z,52.38
2019-03-03T21:33:58.136Z,52.41
2019-03-03T21:36:26.527Z,52.48
2019-03-03T21:38:54.928Z,52.50
2019-03-03T21:41:23.343Z,52.56
2019-03-03T21:43:51.735Z,52.54
2019-03-03T21:46:20.135Z,52.79
2019-03-03T21:54:17.890Z,53.46
2019-03-03T22:02:07.547Z,54.05
2019-03-03T22:07:09.906Z,54.02
2019-03-03T22:09:38.294Z,53.89
2019-03-03T22:14:40.270Z,53.61
2019-03-03T22:17:21.083Z,53.63
2019-03-03T22:19:49.466Z,53.72
2019-03-03T22:22:17.858Z,53.79
2019-03-03T22:27:20.039Z,53.99
2019-03-03T22:29:48.439Z,53.97
2019-03-03T22:32:16.899Z,53.97
2019-03-03T22:34:45.296Z,54.01
2019-03-03T22:37:13.683Z,54.00
2019-03-03T22:39:42.099Z,54.06
2019-03-03T22:42:10.483Z,54.16
2019-03-03T22:44:38.876Z,54.22
2019-03-03T22:47:07.310Z,54.25
2019-03-03T22:49:35.701Z,54.26
2019-03-03T22:54:57.540Z,54.08
2019-03-03T22:57:25.959Z,54.08
2019-03-03T22:59:54.346Z,54.23
2019-03-03T23:03:02.783Z,54.32
2019-03-03T23:06:11.155Z,54.39
2019-03-03T23:09:19.560Z,54.34
2019-03-03T23:12:26.548Z,54.31
2019-03-03T23:15:33.652Z,54.31
2019-03-03T23:18:40.654Z,54.35
2019-03-03T23:21:47.721Z,54.48
2019-03-03T23:24:54.705Z,54.45
2019-03-03T23:27:42.376Z,54.55
2019-03-03T23:30:30.090Z,54.51
2019-03-03T23:32:58.506Z,54.54
2019-03-03T23:35:26.903Z,54.59
2019-03-03T23:37:55.295Z,54.64
2019-03-03T23:42:57.634Z,54.63
2019-03-03T23:45:26.047Z,54.70
2019-03-03T23:47:54.443Z,54.74
2019-03-03T23:50:22.840Z,54.77
2019-03-03T23:52:51.261Z,54.72
2019-03-03T23:55:19.651Z,54.65
2019-03-03T23:57:48.047Z,54.63
